createdAt,value
2022-08-28T00:01:08.268Z,100291.44
2022-08-28T00:03:54.725Z,100286.59
2022-08-28T00:06:34.867Z,100290.22
2022-08-28T00:09:21.696Z,100288.56
2022-08-28T00:12:08.742Z,100287.34
2022-08-28T00:14:49.110Z,100299.44
2022-08-28T00:17:35.738Z,100293.00
2022-08-28T00:20:25.693Z,100295.47
2022-08-28T00:23:05.992Z,100303.22
2022-08-28T00:25:52.708Z,100294.06
2022-08-28T00:28:33.118Z,100303.75
2022-08-28T00:31:19.725Z,100294.53
2022-08-28T00:34:03.268Z,100297.78
2022-08-28T00:36:49.715Z,100293.38
2022-08-28T00:39:29.816Z,100288.53
2022-08-28T00:42:16.668Z,100286.97
2022-08-28T00:45:04.671Z,100287.41
2022-08-28T00:47:45.842Z,100279.75
2022-08-28T00:50:36.674Z,100283.38
2022-08-28T00:53:27.145Z,100277.34
2022-08-28T00:56:24.688Z,100282.97
2022-08-28T00:59:15.676Z,100282.16
2022-08-28T01:02:04.724Z,100288.56
2022-08-28T01:04:45.697Z,100276.94
2022-08-28T01:07:32.660Z,100284.56
2022-08-28T01:10:18.248Z,100292.59
2022-08-28T01:13:05.623Z,100289.34
2022-08-28T01:15:47.003Z,100292.19
2022-08-28T01:18:34.680Z,100291.38
2022-08-28T01:21:27.119Z,100288.59
2022-08-28T01:24:22.636Z,100293.00
2022-08-28T01:27:09.647Z,100295.03
2022-08-28T01:29:50.753Z,100300.66
2022-08-28T01:32:42.640Z,100293.84
2022-08-28T01:35:26.724Z,100291.06
2022-08-28T01:38:17.619Z,100295.09
2022-08-28T01:41:00.711Z,100289.50
2022-08-28T01:43:48.648Z,100291.50
2022-08-28T01:46:36.709Z,100283.50
2022-08-28T01:49:17.659Z,100288.34
2022-08-28T01:51:57.623Z,100279.91
2022-08-28T01:54:37.735Z,100284.69
2022-08-28T01:57:25.603Z,100290.72
2022-08-28T02:00:12.583Z,100279.44
2022-08-28T02:02:55.583Z,100276.66
2022-08-28T02:05:45.588Z,100287.88
2022-08-28T02:08:25.987Z,100288.28
2022-08-28T02:11:12.592Z,100286.28
2022-08-28T02:13:54.304Z,100283.06
2022-08-28T02:16:43.605Z,100285.47
2022-08-28T02:19:24.628Z,100288.69
2022-08-28T02:22:14.604Z,100287.09
2022-08-28T02:24:55.026Z,100279.50
2022-08-28T02:27:41.583Z,100286.69
2022-08-28T02:30:22.097Z,100284.69
2022-08-28T02:33:08.553Z,100287.50
2022-08-28T02:36:02.620Z,100288.31
2022-08-28T02:38:56.854Z,100288.34
2022-08-28T02:41:44.554Z,100289.53
2022-08-28T02:44:24.977Z,100292.34
2022-08-28T02:47:11.566Z,100299.56
2022-08-28T02:49:58.547Z,100297.56
2022-08-28T02:52:45.545Z,100287.16
2022-08-28T02:55:26.154Z,100299.16
2022-08-28T02:58:13.626Z,100299.97
2022-08-28T03:01:01.551Z,100299.16
2022-08-28T03:03:48.548Z,100302.34
2022-08-28T03:26:42.564Z,100307.38
2022-08-28T03:29:23.473Z,100309.03
2022-08-28T03:32:10.564Z,100311.06
2022-08-28T03:34:50.957Z,100308.31
2022-08-28T03:37:38.533Z,100308.75
2022-08-28T03:40:19.939Z,100313.59
2022-08-28T03:43:06.938Z,100315.19
2022-08-28T03:46:09.563Z,100308.78
2022-08-28T03:48:50.751Z,100308.78
2022-08-28T03:51:40.550Z,100314.00
2022-08-28T03:54:27.551Z,100318.41
2022-08-28T03:57:07.985Z,100317.22
2022-08-28T03:59:54.555Z,100321.63
2022-08-28T04:02:34.990Z,100327.63
2022-08-28T04:05:24.995Z,100328.84
2022-08-28T04:08:11.761Z,100332.44
2022-08-28T04:10:59.549Z,100329.66
2022-08-28T04:13:48.554Z,100333.69
2022-08-28T04:16:35.569Z,100331.25
2022-08-28T04:19:15.923Z,100333.66
2022-08-28T04:22:02.509Z,100338.06
2022-08-28T04:24:49.533Z,100344.84
2022-08-28T04:27:36.526Z,100336.78
2022-08-28T04:30:24.513Z,100336.84
2022-08-28T04:33:06.209Z,100329.22
2022-08-28T04:35:53.529Z,100328.41
2022-08-28T04:38:33.635Z,100330.38
2022-08-28T04:41:22.527Z,100333.97
2022-08-28T04:44:03.588Z,100329.19
2022-08-28T04:46:50.498Z,100335.19
2022-08-28T04:49:30.620Z,100336.78
2022-08-28T04:52:18.472Z,100347.97
2022-08-28T04:54:58.605Z,100340.22
2022-08-28T04:57:45.496Z,100344.13
2022-08-28T05:00:25.600Z,100344.84
2022-08-28T05:03:12.462Z,100352.81
2022-08-28T05:05:55.620Z,100340.25
2022-08-28T05:08:42.470Z,100340.53
2022-08-28T05:11:33.631Z,100343.75
2022-08-28T05:14:22.506Z,100345.50
2022-08-28T05:17:02.574Z,100349.00
2022-08-28T05:19:50.456Z,100344.31
2022-08-28T05:22:37.508Z,100342.84
2022-08-28T05:25:31.465Z,100355.50
2022-08-28T05:28:12.877Z,100343.41
2022-08-28T05:30:59.454Z,100352.53
2022-08-28T05:33:46.440Z,100354.00
2022-08-28T05:36:32.579Z,100352.91
2022-08-28T05:39:20.477Z,100349.06
2022-08-28T05:42:00.570Z,100359.47
2022-08-28T05:44:47.456Z,100353.94
2022-08-28T05:47:34.615Z,100355.84
2022-08-28T05:50:21.436Z,100355.16
2022-08-28T05:53:01.591Z,100363.84
2022-08-28T05:55:51.767Z,100366.81
2022-08-28T05:58:39.422Z,100370.84
2022-08-28T06:01:30.465Z,100372.19
2022-08-28T06:04:40.471Z,100370.03
2022-08-28T06:07:27.502Z,100370.75
2022-08-28T06:10:07.466Z,100354.53
2022-08-28T06:12:50.804Z,100357.44
2022-08-28T06:15:37.388Z,100362.72
2022-08-28T06:18:17.911Z,100360.69
2022-08-28T06:21:04.383Z,100364.13
2022-08-28T06:23:51.407Z,100357.84
2022-08-28T06:26:45.403Z,100355.84
2022-08-28T06:29:27.033Z,100363.22
2022-08-28T06:32:15.463Z,100357.09
2022-08-28T06:34:55.761Z,100366.72
2022-08-28T06:37:42.410Z,100361.09
2022-08-28T06:40:29.414Z,100369.66
2022-08-28T06:43:16.388Z,100364.53
2022-08-28T06:45:58.090Z,100366.22
2022-08-28T06:48:45.405Z,100371.22
2022-08-28T06:51:25.787Z,100370.47
2022-08-28T06:54:12.384Z,100364.84
2022-08-28T06:56:52.980Z,100362.13
2022-08-28T06:59:39.379Z,100369.03
2022-08-28T07:02:19.877Z,100368.78
2022-08-28T07:05:07.383Z,100367.56
2022-08-28T07:07:54.345Z,100370.16
2022-08-28T07:10:37.492Z,100368.84
2022-08-28T07:13:24.387Z,100368.47
2022-08-28T07:16:04.521Z,100368.56
2022-08-28T07:18:52.339Z,100363.72
2022-08-28T07:21:40.337Z,100365.00
2022-08-28T07:24:21.061Z,100368.97
2022-08-28T07:27:09.332Z,100373.06
2022-08-28T07:29:56.365Z,100371.25
2022-08-28T07:32:36.466Z,100363.97
2022-08-28T07:35:25.344Z,100367.41
2022-08-28T07:38:12.539Z,100378.94
2022-08-28T07:40:54.046Z,100378.69
2022-08-28T07:43:59.297Z,100373.94
2022-08-28T07:46:47.310Z,100365.97
2022-08-28T07:49:27.507Z,100374.09
2022-08-28T07:52:16.289Z,100382.78
2022-08-28T07:54:56.523Z,100374.31
2022-08-28T07:57:43.323Z,100379.78
2022-08-28T08:00:23.425Z,100377.13
2022-08-28T08:03:10.366Z,100392.06
2022-08-28T08:06:09.319Z,100382.13
2022-08-28T08:08:56.297Z,100380.16
2022-08-28T08:11:43.325Z,100392.59
2022-08-28T08:14:23.753Z,100380.66
2022-08-28T08:17:10.323Z,100396.13
2022-08-28T08:19:50.729Z,100387.13
2022-08-28T08:22:37.306Z,100388.38
2022-08-28T08:25:17.895Z,100385.59
2022-08-28T08:28:04.291Z,100382.56
2022-08-28T08:30:51.317Z,100391.31
2022-08-28T08:33:32.120Z,100391.31
2022-08-28T08:36:21.286Z,100386.13
2022-08-28T08:39:09.704Z,100397.50
2022-08-28T08:41:55.489Z,100388.00
2022-08-28T08:44:48.281Z,100380.19
2022-08-28T08:47:54.298Z,100383.50
2022-08-28T08:50:38.787Z,100387.78
2022-08-28T08:53:37.257Z,100396.00
2022-08-28T08:56:23.961Z,100393.44
2022-08-28T08:59:26.247Z,100392.19
2022-08-28T09:02:19.313Z,100391.19
2022-08-28T09:05:18.277Z,100387.38
2022-08-28T09:08:12.419Z,100375.19
2022-08-28T09:11:01.758Z,100387.84
2022-08-28T09:14:01.293Z,100382.81
2022-08-28T09:16:51.364Z,100382.84
2022-08-28T09:19:31.273Z,100374.09
2022-08-28T09:22:12.030Z,100377.19
2022-08-28T09:24:59.174Z,100371.50
2022-08-28T09:27:47.770Z,100381.22
2022-08-28T09:30:44.238Z,100377.84
2022-08-28T09:33:41.898Z,100383.34
2022-08-28T09:36:40.333Z,100380.25
2022-08-28T09:39:39.193Z,100377.28
2022-08-28T09:42:54.230Z,100377.66
2022-08-28T09:45:34.682Z,100371.91
2022-08-28T09:48:34.229Z,100373.38
2022-08-28T09:51:29.597Z,100383.34
2022-08-28T09:54:25.206Z,100388.84
2022-08-28T09:57:05.724Z,100387.84
2022-08-28T09:59:52.218Z,100382.41
2022-08-28T10:02:50.979Z,100380.84
2022-08-28T10:05:57.224Z,100376.50
2022-08-28T10:08:53.218Z,100386.06
2022-08-28T10:11:57.207Z,100379.16
2022-08-28T10:14:49.152Z,100382.91
2022-08-28T10:18:00.187Z,100369.53
2022-08-28T10:21:10.193Z,100369.72
2022-08-28T10:24:00.143Z,100381.03
2022-08-28T10:27:28.170Z,100367.13
2022-08-28T10:30:14.971Z,100367.81
2022-08-28T10:33:44.166Z,100372.59
2022-08-28T10:36:37.186Z,100359.00
2022-08-28T10:39:39.165Z,100371.75
2022-08-28T10:42:36.299Z,100367.06
2022-08-28T10:45:31.414Z,100364.94
2022-08-28T10:48:27.137Z,100354.50
2022-08-28T10:51:19.171Z,100353.81
2022-08-28T10:54:45.138Z,100354.75
2022-08-28T10:57:59.123Z,100354.06
2022-08-28T11:00:47.144Z,100359.00
2022-08-28T11:03:37.114Z,100352.72
2022-08-28T11:06:31.118Z,100361.22
2022-08-28T11:09:34.138Z,100361.81
2022-08-28T11:12:25.147Z,100362.22
2022-08-28T11:15:05.234Z,100366.41
2022-08-28T11:17:52.145Z,100368.69
2022-08-28T11:20:36.300Z,100372.00
2022-08-28T11:23:29.137Z,100373.56
2022-08-28T11:26:21.107Z,100374.19
2022-08-28T11:29:03.306Z,100377.34
2022-08-28T11:31:53.121Z,100375.22
2022-08-28T11:35:00.579Z,100366.72
2022-08-28T11:37:48.141Z,100369.72
2022-08-28T11:40:58.133Z,100361.69
2022-08-28T11:43:40.762Z,100358.38
2022-08-28T11:46:30.174Z,100376.09
2022-08-28T11:49:39.122Z,100370.03
2022-08-28T11:52:41.116Z,100369.59
2022-08-28T11:55:50.460Z,100366.25
2022-08-28T11:58:46.076Z,100380.28
2022-08-28T12:01:35.536Z,100373.09
2022-08-28T12:04:26.298Z,100382.09
2022-08-28T12:07:19.084Z,100373.53
2022-08-28T12:10:06.085Z,100363.88
2022-08-28T12:12:46.421Z,100363.19
2022-08-28T12:15:42.154Z,100360.31
2022-08-28T12:18:51.507Z,100356.16
2022-08-28T12:21:42.098Z,100365.28
2022-08-28T12:24:31.075Z,100359.72
2022-08-28T12:27:21.066Z,100359.06
2022-08-28T12:30:09.043Z,100360.75
2022-08-28T12:32:56.042Z,100358.97
2022-08-28T12:35:36.808Z,100353.53
2022-08-28T12:38:34.055Z,100356.41
2022-08-28T12:41:17.224Z,100354.88
2022-08-28T12:44:16.039Z,100366.81
2022-08-28T12:46:57.291Z,100359.91
2022-08-28T12:49:49.037Z,100366.28
2022-08-28T12:52:36.052Z,100361.41
2022-08-28T12:55:16.164Z,100355.19
2022-08-28T12:58:03.049Z,100341.63
2022-08-28T13:00:50.098Z,100351.50
2022-08-28T13:03:30.748Z,100347.78
2022-08-28T13:06:20.999Z,100350.53
2022-08-28T13:09:12.028Z,100349.34
2022-08-28T13:12:01.995Z,100354.00
2022-08-28T13:14:53.026Z,100349.88
2022-08-28T13:18:10.012Z,100351.25
2022-08-28T13:20:57.061Z,100363.09
2022-08-28T13:23:37.003Z,100345.81
2022-08-28T13:26:24.995Z,100350.41
2022-08-28T13:29:21.898Z,100364.78
2022-08-28T13:32:29.984Z,100350.94
2022-08-28T13:35:40.017Z,100340.75
2022-08-28T13:38:23.096Z,100356.06
2022-08-28T13:41:12.026Z,100344.19
2022-08-28T13:44:00.057Z,100349.41
2022-08-28T13:46:40.384Z,100366.63
2022-08-28T13:49:27.005Z,100350.31
2022-08-28T13:52:14.993Z,100347.03
2022-08-28T13:54:55.486Z,100341.09
2022-08-28T13:57:41.955Z,100338.44
2022-08-28T14:00:23.111Z,100344.66
2022-08-28T14:03:28.979Z,100331.78
2022-08-28T14:06:31.873Z,100334.28
2022-08-28T14:09:15.278Z,100339.16
2022-08-28T14:12:04.981Z,100348.00
2022-08-28T14:14:51.967Z,100330.09
2022-08-28T14:17:32.055Z,100338.59
2022-08-28T14:20:20.957Z,100335.06
2022-08-28T14:23:08.002Z,100331.72
2022-08-28T14:26:04.997Z,100322.56
2022-08-28T14:28:51.976Z,100325.72
2022-08-28T14:31:36.018Z,100331.78
2022-08-28T14:34:28.943Z,100332.50
2022-08-28T14:37:09.041Z,100341.34
2022-08-28T14:39:56.981Z,100333.75
2022-08-28T14:42:37.053Z,100334.63
2022-08-28T14:45:23.929Z,100340.13
2022-08-28T14:48:04.000Z,100334.22
2022-08-28T14:50:54.938Z,100334.88
2022-08-28T14:53:41.925Z,100335.97
2022-08-28T14:56:29.223Z,100343.41
2022-08-28T14:59:18.427Z,100337.59
2022-08-28T15:02:02.218Z,100344.34
2022-08-28T15:04:48.924Z,100351.19
2022-08-28T15:07:35.922Z,100347.34
2022-08-28T15:10:17.199Z,100337.03
2022-08-28T15:28:38.032Z,100345.47
2022-08-28T15:31:25.171Z,100337.19
2022-08-28T15:34:16.052Z,100334.34
2022-08-28T15:36:58.350Z,100337.81
2022-08-28T15:40:04.159Z,100337.63
2022-08-28T15:42:45.455Z,100335.19
2022-08-28T15:45:33.101Z,100330.66
2022-08-28T15:48:13.518Z,100329.00
2022-08-28T15:51:00.108Z,100337.13
2022-08-28T15:53:40.431Z,100334.75
2022-08-28T15:56:28.037Z,100336.50
2022-08-28T15:59:10.707Z,100331.28
2022-08-28T16:01:58.121Z,100336.09
2022-08-28T16:04:38.504Z,100332.03
2022-08-28T16:07:25.045Z,100337.13
2022-08-28T16:10:17.707Z,100340.22
2022-08-28T16:12:57.666Z,100336.94
2022-08-28T16:15:45.007Z,100346.81
2022-08-28T16:18:25.121Z,100348.47
2022-08-28T16:21:11.980Z,100344.69
2022-08-28T16:23:59.055Z,100348.34
2022-08-28T16:26:52.972Z,100354.09
2022-08-28T16:29:40.008Z,100361.31
2022-08-28T16:32:20.061Z,100355.97
2022-08-28T16:35:09.979Z,100360.63
2022-08-28T16:37:56.989Z,100364.91
2022-08-28T16:40:44.095Z,100367.66
2022-08-28T16:43:23.999Z,100371.84
2022-08-28T16:46:09.545Z,100376.06
2022-08-28T16:48:56.972Z,100369.38
2022-08-28T16:51:44.949Z,100370.88
2022-08-28T16:54:32.953Z,100374.91
2022-08-28T16:57:13.350Z,100379.88
2022-08-28T17:00:00.941Z,100375.38
2022-08-28T17:02:42.606Z,100375.81
2022-08-28T17:05:31.942Z,100384.69
2022-08-28T17:08:18.962Z,100375.16
2022-08-28T17:11:05.935Z,100389.34
2022-08-28T17:13:48.648Z,100393.06
2022-08-28T17:16:40.944Z,100391.44
2022-08-28T17:19:23.290Z,100391.44
2022-08-28T17:22:27.916Z,100400.81
2022-08-28T17:25:13.714Z,100409.31
2022-08-28T17:28:00.934Z,100414.59
2022-08-28T17:30:41.384Z,100418.59
2022-08-28T17:33:27.902Z,100421.41
2022-08-28T17:36:15.305Z,100431.09
2022-08-28T17:39:13.904Z,100433.94
2022-08-28T17:41:54.391Z,100437.69
2022-08-28T17:44:41.920Z,100429.53
2022-08-28T17:47:27.457Z,100438.81
2022-08-28T17:53:06.065Z,100446.19
2022-08-28T17:55:45.922Z,100436.94
2022-08-28T17:58:26.367Z,100445.34
2022-08-28T18:01:12.967Z,100450.53
2022-08-28T18:04:01.928Z,100449.31
2022-08-28T18:06:42.073Z,100451.00
2022-08-28T18:09:29.891Z,100450.53
2022-08-28T18:12:12.452Z,100449.72
2022-08-28T18:14:59.892Z,100453.44
2022-08-28T18:17:40.154Z,100459.84
2022-08-28T18:20:27.104Z,100455.69
2022-08-28T18:23:07.163Z,100453.75
2022-08-28T18:25:55.029Z,100456.19
2022-08-28T18:28:42.267Z,100463.84
2022-08-28T18:31:22.063Z,100470.28
2022-08-28T18:34:02.568Z,100468.44
2022-08-28T18:36:49.078Z,100470.72
2022-08-28T18:39:30.122Z,100473.97
2022-08-28T18:42:17.048Z,100481.66
2022-08-28T18:44:57.489Z,100473.34
2022-08-28T18:47:44.090Z,100477.72
2022-08-28T18:50:27.044Z,100471.31
2022-08-28T18:53:14.069Z,100473.28
2022-08-28T18:55:55.309Z,100475.31
2022-08-28T18:58:42.953Z,100480.22
2022-08-28T19:01:23.394Z,100481.97
2022-08-28T19:04:09.818Z,100479.13
2022-08-28T19:06:50.311Z,100475.44
2022-08-28T19:09:36.832Z,100478.31
2022-08-28T19:12:23.961Z,100482.25
2022-08-28T19:15:04.815Z,100480.75
2022-08-28T19:17:45.664Z,100480.34
2022-08-28T19:20:39.847Z,100483.53
2022-08-28T19:23:20.317Z,100492.44
2022-08-28T19:26:06.854Z,100494.00
2022-08-28T19:29:00.832Z,100484.72
2022-08-28T19:31:43.813Z,100489.03
2022-08-28T19:34:31.842Z,100487.09
2022-08-28T19:37:12.209Z,100498.84
2022-08-28T19:39:58.862Z,100495.09
2022-08-28T19:42:45.769Z,100497.59
2022-08-28T19:45:32.834Z,100493.56
2022-08-28T19:48:13.429Z,100498.66
2022-08-28T19:51:01.017Z,100495.84
2022-08-28T19:53:41.350Z,100498.78
2022-08-28T19:56:31.878Z,100496.25
2022-08-28T19:59:18.899Z,100495.22
2022-08-28T20:01:58.888Z,100500.94
2022-08-28T20:04:45.820Z,100508.13
2022-08-28T20:07:26.004Z,100503.25
2022-08-28T20:10:13.811Z,100502.63
2022-08-28T20:13:00.822Z,100498.72
2022-08-28T20:15:45.938Z,100501.59
2022-08-28T20:18:33.764Z,100498.47
2022-08-28T20:21:14.475Z,100504.56
2022-08-28T20:24:01.796Z,100506.22
2022-08-28T20:26:56.724Z,100506.25
2022-08-28T20:29:43.796Z,100498.94
2022-08-28T20:32:23.890Z,100499.28
2022-08-28T20:35:13.729Z,100492.84
2022-08-28T20:38:00.735Z,100506.69
2022-08-28T20:40:47.814Z,100491.88
2022-08-28T20:43:28.710Z,100495.69
2022-08-28T20:46:16.756Z,100508.66
2022-08-28T20:48:56.820Z,100496.50
2022-08-28T20:52:02.764Z,100498.88
2022-08-28T20:54:46.078Z,100496.41
2022-08-28T20:57:34.752Z,100501.59
2022-08-28T21:00:16.841Z,100509.66
2022-08-28T21:03:03.720Z,100504.81
2022-08-28T21:05:50.713Z,100508.06
2022-08-28T21:08:37.939Z,100501.59
2022-08-28T21:11:17.745Z,100504.53
2022-08-28T21:14:04.728Z,100506.19
2022-08-28T21:16:52.748Z,100504.53
2022-08-28T21:19:36.194Z,100495.25
2022-08-28T21:22:26.726Z,100494.09
2022-08-28T21:25:10.306Z,100498.69
2022-08-28T21:27:57.680Z,100493.44
2022-08-28T21:30:41.622Z,100496.78
2022-08-28T21:33:28.685Z,100495.94
2022-08-28T21:36:17.707Z,100495.19
2022-08-28T21:38:58.411Z,100498.47
2022-08-28T21:41:45.715Z,100497.22
2022-08-28T21:44:25.781Z,100504.25
2022-08-28T21:47:12.732Z,100515.97
2022-08-28T21:49:54.801Z,100505.94
2022-08-28T21:52:42.639Z,100508.44
2022-08-28T21:55:29.702Z,100512.47
2022-08-28T21:58:16.697Z,100515.75
2022-08-28T22:00:59.810Z,100519.47
2022-08-28T22:03:50.679Z,100500.97
2022-08-28T22:06:31.962Z,100516.25
2022-08-28T22:09:18.663Z,100507.06
2022-08-28T22:11:58.749Z,100499.88
2022-08-28T22:14:45.658Z,100502.34
2022-08-28T22:17:26.218Z,100498.75
2022-08-28T22:20:12.684Z,100507.97
2022-08-28T22:23:13.817Z,100497.88
2022-08-28T22:26:00.646Z,100501.50
2022-08-28T22:28:47.721Z,100508.34
2022-08-28T22:31:27.659Z,100507.91
2022-08-28T22:34:09.015Z,100506.28
2022-08-28T22:36:55.643Z,100515.19
2022-08-28T22:39:42.783Z,100511.53
2022-08-28T22:42:22.631Z,100503.44
2022-08-28T22:45:03.150Z,100504.72
2022-08-28T22:47:49.663Z,100503.09
2022-08-28T22:50:30.070Z,100502.84
2022-08-28T22:53:16.615Z,100493.22
2022-08-28T22:55:57.447Z,100502.53
2022-08-28T22:58:46.596Z,100501.72
2022-08-28T23:01:33.702Z,100495.63
2022-08-28T23:04:13.692Z,100499.25
2022-08-28T23:06:54.063Z,100487.16
2022-08-28T23:09:40.600Z,100481.19
2022-08-28T23:12:21.091Z,100485.66
2022-08-28T23:15:07.568Z,100489.31
2022-08-28T23:17:48.817Z,100486.91
2022-08-28T23:20:35.581Z,100483.66
2022-08-28T23:23:16.145Z,100485.59
2022-08-28T23:26:02.610Z,100482.00
2022-08-28T23:28:43.358Z,100478.34
2022-08-28T23:31:30.553Z,100487.97
2022-08-28T23:34:18.584Z,100489.19
2022-08-28T23:37:05.534Z,100497.22
2022-08-28T23:39:46.008Z,100494.44
2022-08-28T23:42:34.572Z,100491.19
2022-08-28T23:45:23.562Z,100493.56
2022-08-28T23:48:03.712Z,100497.13
2022-08-28T23:50:51.535Z,100491.06
2022-08-28T23:53:31.687Z,100485.81
2022-08-28T23:56:22.587Z,100499.50
2022-08-28T23:59:12.028Z,100495.16
